This is the latest recevied weather packets stored in our database for station/object SQ9MHX-13. If no packets are shown the sender has not sent any weather packets the latest 10 day(s).
| Time | Temp. | Humidity | Pressure | Rain* | Wind** | Luminosity | Snow |
|---|---|---|---|---|---|---|---|
| 1777775734 | 3.89° C | 87% | 985.1 hPa | - | 0 m/s | - | - |
| 1777775437 | 3.89° C | 88% | 985 hPa | - | 0 m/s | - | - |
| 1777775138 | 3.89° C | 88% | 985.1 hPa | - | 0 m/s | - | - |
| 1777774840 | 3.89° C | 87% | 985.1 hPa | - | 0 m/s | - | - |
| 1777774542 | 3.89° C | 86% | 984.9 hPa | - | 0 m/s | - | - |
| 1777774244 | 3.89° C | 86% | 984.5 hPa | - | 0 m/s | - | - |
| 1777773946 | 5° C | 86% | 984 hPa | - | 0 m/s | - | - |
| 1777773848 | 5° C | 84% | 982.7 hPa | - | 0 m/s | - | - |
| 1777773648 | 5° C | 84% | 982.7 hPa | - | 0 m/s | - | - |
| 1777773350 | 6.11° C | 80% | 981 hPa | - | 0 m/s | - | - |
| 1777773052 | 7.22° C | 76% | 980.9 hPa | - | 0 m/s | - | - |
| 1777772754 | 7.22° C | 76% | 980.6 hPa | - | 0 m/s | - | - |
| 1777772455 | 6.11° C | 80% | 981.3 hPa | - | 0 m/s | - | - |
| 1777772157 | 7.22° C | 78% | 981.1 hPa | - | 0 m/s | - | - |
| 1777771859 | 7.22° C | 78% | 981.2 hPa | - | 0 m/s | - | - |
| 1777771561 | 7.22° C | 76% | 981.4 hPa | - | 0 m/s | - | - |
| 1777771263 | 6.11° C | 80% | 982.5 hPa | - | 0 m/s | - | - |
| 1777770964 | 6.11° C | 81% | 983.3 hPa | - | 0 m/s | - | - |
| 1777770666 | 5° C | 81% | 983.5 hPa | - | 0 m/s | - | - |
| 1777770368 | 5° C | 83% | 983.6 hPa | - | 0 m/s | - | - |
| 1777770070 | 5° C | 81% | 983 hPa | - | 0 m/s | - | - |
| 1777769473 | 7.78° C | 75% | 980.1 hPa | - | 0 m/s | - | - |
| 1777769175 | 7.78° C | 74% | 981 hPa | - | 0 m/s | - | - |
| 1777768877 | 6.11° C | 79% | 982.2 hPa | - | 0 m/s | - | - |
| 1777768579 | 6.11° C | 78% | 980.8 hPa | - | 0 m/s | - | - |
* Rain since midnight (hover to see other rain measurements)
** Current wind speed in m/s (hover to see current wind gust speed)